sensor_id;sensor_type;location;lat;lon;timestamp;temperature;humidity
37456;DHT22;23316;50.718;7.328;2023-11-19T00:02:08;13.40;74.40
37456;DHT22;23316;50.718;7.328;2023-11-19T00:04:36;13.50;74.30
37456;DHT22;23316;50.718;7.328;2023-11-19T00:07:05;13.50;74.10
37456;DHT22;23316;50.718;7.328;2023-11-19T00:09:33;13.50;73.90
37456;DHT22;23316;50.718;7.328;2023-11-19T00:12:03;13.50;73.70
37456;DHT22;23316;50.718;7.328;2023-11-19T00:14:31;13.50;73.50
37456;DHT22;23316;50.718;7.328;2023-11-19T00:16:58;13.50;73.30
37456;DHT22;23316;50.718;7.328;2023-11-19T00:19:26;13.50;73.30
37456;DHT22;23316;50.718;7.328;2023-11-19T00:21:54;13.50;73.30
37456;DHT22;23316;50.718;7.328;2023-11-19T00:24:21;13.60;73.20
37456;DHT22;23316;50.718;7.328;2023-11-19T00:26:48;13.60;73.10
37456;DHT22;23316;50.718;7.328;2023-11-19T00:29:16;13.60;73.10
37456;DHT22;23316;50.718;7.328;2023-11-19T00:31:44;13.60;73.10
37456;DHT22;23316;50.718;7.328;2023-11-19T00:34:12;13.60;73.10
37456;DHT22;23316;50.718;7.328;2023-11-19T00:36:40;13.60;73.10
37456;DHT22;23316;50.718;7.328;2023-11-19T00:39:08;13.60;73.10
37456;DHT22;23316;50.718;7.328;2023-11-19T00:41:35;13.60;73.30
37456;DHT22;23316;50.718;7.328;2023-11-19T00:44:02;13.60;73.50
37456;DHT22;23316;50.718;7.328;2023-11-19T00:46:30;13.60;73.70
37456;DHT22;23316;50.718;7.328;2023-11-19T00:48:57;13.70;73.90
37456;DHT22;23316;50.718;7.328;2023-11-19T00:51:25;13.60;74.00
37456;DHT22;23316;50.718;7.328;2023-11-19T00:53:54;13.60;74.30
37456;DHT22;23316;50.718;7.328;2023-11-19T00:56:21;13.60;74.90
37456;DHT22;23316;50.718;7.328;2023-11-19T00:58:49;13.60;75.10
37456;DHT22;23316;50.718;7.328;2023-11-19T01:01:16;13.60;75.10
37456;DHT22;23316;50.718;7.328;2023-11-19T01:03:43;13.60;75.70
37456;DHT22;23316;50.718;7.328;2023-11-19T01:06:10;13.60;76.90
37456;DHT22;23316;50.718;7.328;2023-11-19T01:08:37;13.60;76.70
37456;DHT22;23316;50.718;7.328;2023-11-19T01:11:06;13.60;77.10
37456;DHT22;23316;50.718;7.328;2023-11-19T01:13:34;13.60;77.60
37456;DHT22;23316;50.718;7.328;2023-11-19T01:16:01;13.60;78.00
37456;DHT22;23316;50.718;7.328;2023-11-19T01:18:28;13.60;78.50
37456;DHT22;23316;50.718;7.328;2023-11-19T01:20:55;13.60;78.80
37456;DHT22;23316;50.718;7.328;2023-11-19T01:23:23;13.60;79.00
37456;DHT22;23316;50.718;7.328;2023-11-19T01:25:50;13.70;79.30
37456;DHT22;23316;50.718;7.328;2023-11-19T01:28:18;13.70;79.40
37456;DHT22;23316;50.718;7.328;2023-11-19T01:30:46;13.70;79.40
37456;DHT22;23316;50.718;7.328;2023-11-19T01:33:13;13.70;79.60
37456;DHT22;23316;50.718;7.328;2023-11-19T01:35:43;13.60;79.90
37456;DHT22;23316;50.718;7.328;2023-11-19T01:38:10;13.70;80.20
37456;DHT22;23316;50.718;7.328;2023-11-19T01:40:37;13.70;80.60
37456;DHT22;23316;50.718;7.328;2023-11-19T01:43:05;13.70;80.60
37456;DHT22;23316;50.718;7.328;2023-11-19T01:45:33;13.70;80.80
37456;DHT22;23316;50.718;7.328;2023-11-19T01:48:02;13.70;81.50
37456;DHT22;23316;50.718;7.328;2023-11-19T01:50:32;13.70;80.90
37456;DHT22;23316;50.718;7.328;2023-11-19T01:53:00;13.70;80.90
37456;DHT22;23316;50.718;7.328;2023-11-19T01:55:28;13.70;80.90
37456;DHT22;23316;50.718;7.328;2023-11-19T01:57:59;13.70;80.80
37456;DHT22;23316;50.718;7.328;2023-11-19T02:00:27;13.80;80.90
37456;DHT22;23316;50.718;7.328;2023-11-19T02:02:56;13.80;81.50
37456;DHT22;23316;50.718;7.328;2023-11-19T02:05:24;13.80;80.50
37456;DHT22;23316;50.718;7.328;2023-11-19T02:07:51;13.90;80.40
37456;DHT22;23316;50.718;7.328;2023-11-19T02:10:18;13.90;80.10
37456;DHT22;23316;50.718;7.328;2023-11-19T02:12:46;14.00;79.90
37456;DHT22;23316;50.718;7.328;2023-11-19T02:15:13;14.00;79.90
37456;DHT22;23316;50.718;7.328;2023-11-19T02:17:40;14.10;79.90
37456;DHT22;23316;50.718;7.328;2023-11-19T02:20:10;14.00;79.50
37456;DHT22;23316;50.718;7.328;2023-11-19T02:22:40;14.10;79.50
37456;DHT22;23316;50.718;7.328;2023-11-19T02:25:12;14.00;79.30
37456;DHT22;23316;50.718;7.328;2023-11-19T02:27:52;14.10;79.10
37456;DHT22;23316;50.718;7.328;2023-11-19T02:30:22;14.10;79.00
37456;DHT22;23316;50.718;7.328;2023-11-19T02:32:52;14.10;79.00
37456;DHT22;23316;50.718;7.328;2023-11-19T02:35:20;14.10;78.90
37456;DHT22;23316;50.718;7.328;2023-11-19T02:37:48;14.10;78.90
37456;DHT22;23316;50.718;7.328;2023-11-19T02:40:15;14.10;78.90
37456;DHT22;23316;50.718;7.328;2023-11-19T02:42:43;14.10;78.90
37456;DHT22;23316;50.718;7.328;2023-11-19T02:45:11;14.10;78.70
37456;DHT22;23316;50.718;7.328;2023-11-19T02:47:40;14.10;78.90
37456;DHT22;23316;50.718;7.328;2023-11-19T02:50:08;14.20;79.10
37456;DHT22;23316;50.718;7.328;2023-11-19T02:52:40;14.20;78.90
37456;DHT22;23316;50.718;7.328;2023-11-19T02:55:08;14.20;78.60
37456;DHT22;23316;50.718;7.328;2023-11-19T02:57:38;14.20;78.50
37456;DHT22;23316;50.718;7.328;2023-11-19T03:00:07;14.30;78.60
37456;DHT22;23316;50.718;7.328;2023-11-19T03:02:41;14.30;78.20
37456;DHT22;23316;50.718;7.328;2023-11-19T03:05:12;14.30;78.00
37456;DHT22;23316;50.718;7.328;2023-11-19T03:07:41;14.40;78.00
37456;DHT22;23316;50.718;7.328;2023-11-19T03:10:10;14.40;77.60
37456;DHT22;23316;50.718;7.328;2023-11-19T03:12:39;14.50;77.40
37456;DHT22;23316;50.718;7.328;2023-11-19T03:15:07;14.50;77.20
37456;DHT22;23316;50.718;7.328;2023-11-19T03:17:36;14.50;77.10
37456;DHT22;23316;50.718;7.328;2023-11-19T03:20:07;14.60;77.10
37456;DHT22;23316;50.718;7.328;2023-11-19T03:22:37;14.60;76.80
37456;DHT22;23316;50.718;7.328;2023-11-19T03:25:04;14.60;76.80
37456;DHT22;23316;50.718;7.328;2023-11-19T03:27:34;14.70;76.60
37456;DHT22;23316;50.718;7.328;2023-11-19T03:30:02;14.80;76.50
37456;DHT22;23316;50.718;7.328;2023-11-19T03:32:31;14.80;76.00
37456;DHT22;23316;50.718;7.328;2023-11-19T03:34:59;14.80;75.60
37456;DHT22;23316;50.718;7.328;2023-11-19T03:37:27;14.80;75.60
37456;DHT22;23316;50.718;7.328;2023-11-19T03:39:55;14.80;75.30
37456;DHT22;23316;50.718;7.328;2023-11-19T03:42:25;14.80;75.00
37456;DHT22;23316;50.718;7.328;2023-11-19T03:44:53;14.90;74.90
37456;DHT22;23316;50.718;7.328;2023-11-19T03:47:20;14.90;74.60
37456;DHT22;23316;50.718;7.328;2023-11-19T03:49:48;14.90;74.20
37456;DHT22;23316;50.718;7.328;2023-11-19T03:52:16;14.90;73.90
37456;DHT22;23316;50.718;7.328;2023-11-19T03:54:44;15.00;73.70
37456;DHT22;23316;50.718;7.328;2023-11-19T03:57:12;14.90;73.50
37456;DHT22;23316;50.718;7.328;2023-11-19T03:59:39;14.90;73.40
37456;DHT22;23316;50.718;7.328;2023-11-19T04:02:07;14.90;73.40
37456;DHT22;23316;50.718;7.328;2023-11-19T04:04:34;14.90;73.40
37456;DHT22;23316;50.718;7.328;2023-11-19T04:07:01;15.00;73.50
37456;DHT22;23316;50.718;7.328;2023-11-19T04:09:29;14.90;73.60
37456;DHT22;23316;50.718;7.328;2023-11-19T04:11:58;15.00;73.70
37456;DHT22;23316;50.718;7.328;2023-11-19T04:14:26;14.90;73.60
37456;DHT22;23316;50.718;7.328;2023-11-19T04:16:53;14.90;73.60
37456;DHT22;23316;50.718;7.328;2023-11-19T04:19:21;14.90;73.70
37456;DHT22;23316;50.718;7.328;2023-11-19T04:21:48;14.90;73.70
37456;DHT22;23316;50.718;7.328;2023-11-19T04:24:16;14.80;73.80
37456;DHT22;23316;50.718;7.328;2023-11-19T04:26:44;14.80;74.00
37456;DHT22;23316;50.718;7.328;2023-11-19T04:29:16;14.70;74.10
37456;DHT22;23316;50.718;7.328;2023-11-19T04:31:44;14.70;74.20
37456;DHT22;23316;50.718;7.328;2023-11-19T04:34:12;14.70;74.40
37456;DHT22;23316;50.718;7.328;2023-11-19T04:36:39;14.80;74.30
37456;DHT22;23316;50.718;7.328;2023-11-19T04:39:07;14.80;74.20
37456;DHT22;23316;50.718;7.328;2023-11-19T04:41:46;14.80;74.00
37456;DHT22;23316;50.718;7.328;2023-11-19T04:44:15;14.80;73.70
37456;DHT22;23316;50.718;7.328;2023-11-19T04:46:43;14.90;73.70
37456;DHT22;23316;50.718;7.328;2023-11-19T04:49:12;14.70;73.50
37456;DHT22;23316;50.718;7.328;2023-11-19T04:51:39;14.90;73.70
37456;DHT22;23316;50.718;7.328;2023-11-19T04:54:08;14.90;73.50
37456;DHT22;23316;50.718;7.328;2023-11-19T04:56:35;14.90;73.30
37456;DHT22;23316;50.718;7.328;2023-11-19T04:59:04;15.00;73.80
37456;DHT22;23316;50.718;7.328;2023-11-19T05:01:33;14.90;72.80
37456;DHT22;23316;50.718;7.328;2023-11-19T05:04:00;14.90;72.40
37456;DHT22;23316;50.718;7.328;2023-11-19T05:06:28;14.90;72.40
37456;DHT22;23316;50.718;7.328;2023-11-19T05:08:55;14.80;72.10
37456;DHT22;23316;50.718;7.328;2023-11-19T05:11:23;14.70;72.20
37456;DHT22;23316;50.718;7.328;2023-11-19T05:13:50;14.70;72.40
37456;DHT22;23316;50.718;7.328;2023-11-19T05:16:17;14.60;71.90
37456;DHT22;23316;50.718;7.328;2023-11-19T05:18:48;14.70;72.10
37456;DHT22;23316;50.718;7.328;2023-11-19T05:21:15;14.60;71.30
37456;DHT22;23316;50.718;7.328;2023-11-19T05:23:43;14.70;71.40
37456;DHT22;23316;50.718;7.328;2023-11-19T05:26:17;14.70;71.00
37456;DHT22;23316;50.718;7.328;2023-11-19T05:28:45;14.80;70.80
37456;DHT22;23316;50.718;7.328;2023-11-19T05:31:13;14.90;70.50
37456;DHT22;23316;50.718;7.328;2023-11-19T05:33:41;14.70;69.30
37456;DHT22;23316;50.718;7.328;2023-11-19T05:36:11;14.80;69.50
37456;DHT22;23316;50.718;7.328;2023-11-19T05:38:38;14.80;69.40
37456;DHT22;23316;50.718;7.328;2023-11-19T05:41:06;14.90;69.00
37456;DHT22;23316;50.718;7.328;2023-11-19T05:43:33;14.80;68.80
37456;DHT22;23316;50.718;7.328;2023-11-19T05:46:01;14.80;68.10
37456;DHT22;23316;50.718;7.328;2023-11-19T05:48:28;14.80;67.80
37456;DHT22;23316;50.718;7.328;2023-11-19T05:50:56;14.80;67.70
37456;DHT22;23316;50.718;7.328;2023-11-19T05:53:24;14.70;67.70
37456;DHT22;23316;50.718;7.328;2023-11-19T05:55:52;14.70;67.40
37456;DHT22;23316;50.718;7.328;2023-11-19T05:58:23;14.70;67.00
37456;DHT22;23316;50.718;7.328;2023-11-19T06:00:54;14.70;67.20
37456;DHT22;23316;50.718;7.328;2023-11-19T06:03:21;14.70;67.00
37456;DHT22;23316;50.718;7.328;2023-11-19T06:05:49;14.70;67.20
37456;DHT22;23316;50.718;7.328;2023-11-19T06:08:16;14.70;66.20
37456;DHT22;23316;50.718;7.328;2023-11-19T06:10:47;14.80;66.70
37456;DHT22;23316;50.718;7.328;2023-11-19T06:13:16;14.90;66.80
37456;DHT22;23316;50.718;7.328;2023-11-19T06:15:44;14.90;66.30
37456;DHT22;23316;50.718;7.328;2023-11-19T06:18:11;14.90;65.90
37456;DHT22;23316;50.718;7.328;2023-11-19T06:20:38;15.00;65.90
37456;DHT22;23316;50.718;7.328;2023-11-19T06:23:06;15.10;65.90
37456;DHT22;23316;50.718;7.328;2023-11-19T06:25:33;15.10;65.90
37456;DHT22;23316;50.718;7.328;2023-11-19T06:28:03;15.20;65.50
37456;DHT22;23316;50.718;7.328;2023-11-19T06:30:30;15.20;64.80
37456;DHT22;23316;50.718;7.328;2023-11-19T06:32:58;15.10;64.20
37456;DHT22;23316;50.718;7.328;2023-11-19T06:35:25;15.20;64.40
37456;DHT22;23316;50.718;7.328;2023-11-19T06:37:55;15.30;64.50
37456;DHT22;23316;50.718;7.328;2023-11-19T06:40:22;15.30;64.40
37456;DHT22;23316;50.718;7.328;2023-11-19T06:42:49;15.30;63.80
37456;DHT22;23316;50.718;7.328;2023-11-19T06:45:19;15.20;63.90
37456;DHT22;23316;50.718;7.328;2023-11-19T06:47:47;15.20;63.90
37456;DHT22;23316;50.718;7.328;2023-11-19T06:50:15;15.30;64.00
37456;DHT22;23316;50.718;7.328;2023-11-19T06:52:42;15.30;64.20
37456;DHT22;23316;50.718;7.328;2023-11-19T06:55:09;15.20;63.80
37456;DHT22;23316;50.718;7.328;2023-11-19T06:57:37;15.30;63.80
37456;DHT22;23316;50.718;7.328;2023-11-19T07:00:06;15.20;63.30
37456;DHT22;23316;50.718;7.328;2023-11-19T07:02:36;15.20;63.10
37456;DHT22;23316;50.718;7.328;2023-11-19T07:05:03;15.10;62.90
37456;DHT22;23316;50.718;7.328;2023-11-19T07:07:31;15.00;62.60
37456;DHT22;23316;50.718;7.328;2023-11-19T07:09:59;14.90;62.10
37456;DHT22;23316;50.718;7.328;2023-11-19T07:12:26;14.90;62.90
37456;DHT22;23316;50.718;7.328;2023-11-19T07:14:53;15.00;62.30
37456;DHT22;23316;50.718;7.328;2023-11-19T07:17:21;15.00;62.00
37456;DHT22;23316;50.718;7.328;2023-11-19T07:19:51;15.00;61.80
37456;DHT22;23316;50.718;7.328;2023-11-19T07:22:18;15.00;61.50
37456;DHT22;23316;50.718;7.328;2023-11-19T07:24:46;14.90;61.10
37456;DHT22;23316;50.718;7.328;2023-11-19T07:27:13;14.90;61.10
37456;DHT22;23316;50.718;7.328;2023-11-19T07:29:43;14.90;61.20
37456;DHT22;23316;50.718;7.328;2023-11-19T07:32:10;14.90;61.40
37456;DHT22;23316;50.718;7.328;2023-11-19T07:34:39;15.00;61.40
37456;DHT22;23316;50.718;7.328;2023-11-19T07:37:08;14.90;61.00
37456;DHT22;23316;50.718;7.328;2023-11-19T07:39:35;14.90;60.90
37456;DHT22;23316;50.718;7.328;2023-11-19T07:42:06;14.90;60.90
37456;DHT22;23316;50.718;7.328;2023-11-19T07:44:35;14.90;60.90
37456;DHT22;23316;50.718;7.328;2023-11-19T07:47:02;14.90;61.00
37456;DHT22;23316;50.718;7.328;2023-11-19T07:49:30;14.90;60.90
37456;DHT22;23316;50.718;7.328;2023-11-19T07:51:57;14.90;60.90
37456;DHT22;23316;50.718;7.328;2023-11-19T07:54:26;14.90;60.70
37456;DHT22;23316;50.718;7.328;2023-11-19T07:56:53;14.90;60.60
37456;DHT22;23316;50.718;7.328;2023-11-19T07:59:21;15.00;60.80
37456;DHT22;23316;50.718;7.328;2023-11-19T08:01:48;14.90;60.40
37456;DHT22;23316;50.718;7.328;2023-11-19T08:04:15;14.80;60.20
37456;DHT22;23316;50.718;7.328;2023-11-19T08:06:43;14.80;60.60
37456;DHT22;23316;50.718;7.328;2023-11-19T08:09:11;14.70;60.80
37456;DHT22;23316;50.718;7.328;2023-11-19T08:11:41;14.70;61.00
37456;DHT22;23316;50.718;7.328;2023-11-19T08:14:08;14.70;61.10
37456;DHT22;23316;50.718;7.328;2023-11-19T08:16:36;14.60;60.70
37456;DHT22;23316;50.718;7.328;2023-11-19T08:19:03;14.60;61.20
37456;DHT22;23316;50.718;7.328;2023-11-19T08:21:31;14.60;61.10
37456;DHT22;23316;50.718;7.328;2023-11-19T08:23:58;14.60;61.10
37456;DHT22;23316;50.718;7.328;2023-11-19T08:26:25;14.50;60.80
37456;DHT22;23316;50.718;7.328;2023-11-19T08:28:54;14.60;61.40
37456;DHT22;23316;50.718;7.328;2023-11-19T08:31:21;14.60;61.00
37456;DHT22;23316;50.718;7.328;2023-11-19T08:33:48;14.60;60.40
37456;DHT22;23316;50.718;7.328;2023-11-19T08:36:16;14.60;60.60
37456;DHT22;23316;50.718;7.328;2023-11-19T08:38:43;14.50;60.40
37456;DHT22;23316;50.718;7.328;2023-11-19T08:41:11;14.50;60.20
37456;DHT22;23316;50.718;7.328;2023-11-19T08:43:38;14.50;60.60
37456;DHT22;23316;50.718;7.328;2023-11-19T08:46:10;14.60;60.00
37456;DHT22;23316;50.718;7.328;2023-11-19T08:48:38;14.60;59.90
37456;DHT22;23316;50.718;7.328;2023-11-19T08:51:05;14.60;60.00
37456;DHT22;23316;50.718;7.328;2023-11-19T08:53:33;14.70;59.50
37456;DHT22;23316;50.718;7.328;2023-11-19T08:56:00;14.70;59.90
37456;DHT22;23316;50.718;7.328;2023-11-19T08:58:28;14.80;59.90
37456;DHT22;23316;50.718;7.328;2023-11-19T09:00:56;15.00;60.10
37456;DHT22;23316;50.718;7.328;2023-11-19T09:03:25;15.00;59.70
37456;DHT22;23316;50.718;7.328;2023-11-19T09:05:53;15.00;59.30
37456;DHT22;23316;50.718;7.328;2023-11-19T09:08:20;15.00;59.10
37456;DHT22;23316;50.718;7.328;2023-11-19T09:10:47;15.10;59.20
37456;DHT22;23316;50.718;7.328;2023-11-19T09:13:14;15.10;58.20
37456;DHT22;23316;50.718;7.328;2023-11-19T09:15:42;15.20;58.50
37456;DHT22;23316;50.718;7.328;2023-11-19T09:18:09;15.10;58.10
37456;DHT22;23316;50.718;7.328;2023-11-19T09:20:38;15.10;57.90
37456;DHT22;23316;50.718;7.328;2023-11-19T09:23:05;15.10;57.50
37456;DHT22;23316;50.718;7.328;2023-11-19T09:25:34;14.90;57.00
37456;DHT22;23316;50.718;7.328;2023-11-19T09:28:01;15.00;57.70
37456;DHT22;23316;50.718;7.328;2023-11-19T09:30:28;14.90;57.90
37456;DHT22;23316;50.718;7.328;2023-11-19T09:32:55;15.00;57.80
37456;DHT22;23316;50.718;7.328;2023-11-19T09:35:22;14.90;57.70
37456;DHT22;23316;50.718;7.328;2023-11-19T09:37:51;14.90;57.80
37456;DHT22;23316;50.718;7.328;2023-11-19T09:40:18;14.80;57.60
37456;DHT22;23316;50.718;7.328;2023-11-19T09:42:47;14.70;57.60
37456;DHT22;23316;50.718;7.328;2023-11-19T09:45:16;14.70;57.30
37456;DHT22;23316;50.718;7.328;2023-11-19T09:47:45;14.70;57.60
37456;DHT22;23316;50.718;7.328;2023-11-19T09:50:16;14.70;57.80
37456;DHT22;23316;50.718;7.328;2023-11-19T09:52:43;14.70;57.40
37456;DHT22;23316;50.718;7.328;2023-11-19T09:55:12;14.80;57.80
37456;DHT22;23316;50.718;7.328;2023-11-19T09:57:40;15.00;57.80
37456;DHT22;23316;50.718;7.328;2023-11-19T10:00:08;14.80;57.20
37456;DHT22;23316;50.718;7.328;2023-11-19T10:02:37;14.90;57.10
37456;DHT22;23316;50.718;7.328;2023-11-19T10:05:07;15.00;57.50
37456;DHT22;23316;50.718;7.328;2023-11-19T10:07:34;15.10;57.50
37456;DHT22;23316;50.718;7.328;2023-11-19T10:10:02;15.10;56.50
37456;DHT22;23316;50.718;7.328;2023-11-19T10:12:31;15.10;56.80
37456;DHT22;23316;50.718;7.328;2023-11-19T10:14:59;15.20;56.70
37456;DHT22;23316;50.718;7.328;2023-11-19T10:17:32;15.30;57.10
37456;DHT22;23316;50.718;7.328;2023-11-19T10:19:59;15.30;56.60
37456;DHT22;23316;50.718;7.328;2023-11-19T10:22:27;15.40;56.40
37456;DHT22;23316;50.718;7.328;2023-11-19T10:24:55;15.30;55.80
37456;DHT22;23316;50.718;7.328;2023-11-19T10:27:24;15.40;56.20
37456;DHT22;23316;50.718;7.328;2023-11-19T10:29:53;15.30;55.60
37456;DHT22;23316;50.718;7.328;2023-11-19T10:32:20;15.40;55.70
37456;DHT22;23316;50.718;7.328;2023-11-19T10:34:47;15.40;56.20
37456;DHT22;23316;50.718;7.328;2023-11-19T10:37:27;15.30;55.80
37456;DHT22;23316;50.718;7.328;2023-11-19T10:39:55;15.40;55.80
37456;DHT22;23316;50.718;7.328;2023-11-19T10:42:23;15.50;56.00
37456;DHT22;23316;50.718;7.328;2023-11-19T10:44:52;15.50;56.00
37456;DHT22;23316;50.718;7.328;2023-11-19T10:47:19;15.60;56.00
37456;DHT22;23316;50.718;7.328;2023-11-19T10:49:48;15.60;56.10
37456;DHT22;23316;50.718;7.328;2023-11-19T10:52:18;15.60;55.90
37456;DHT22;23316;50.718;7.328;2023-11-19T10:54:49;15.60;56.00
37456;DHT22;23316;50.718;7.328;2023-11-19T10:57:20;15.70;55.40
37456;DHT22;23316;50.718;7.328;2023-11-19T10:59:55;15.70;55.60
37456;DHT22;23316;50.718;7.328;2023-11-19T11:02:28;15.70;55.30
37456;DHT22;23316;50.718;7.328;2023-11-19T11:04:59;15.80;55.60
37456;DHT22;23316;50.718;7.328;2023-11-19T11:07:29;15.80;55.20
37456;DHT22;23316;50.718;7.328;2023-11-19T11:09:58;16.00;54.90
37456;DHT22;23316;50.718;7.328;2023-11-19T11:12:26;16.00;55.00
37456;DHT22;23316;50.718;7.328;2023-11-19T11:14:55;16.10;55.10
37456;DHT22;23316;50.718;7.328;2023-11-19T11:17:24;16.20;54.70
37456;DHT22;23316;50.718;7.328;2023-11-19T11:19:54;16.30;54.90
37456;DHT22;23316;50.718;7.328;2023-11-19T11:22:22;16.40;54.70
37456;DHT22;23316;50.718;7.328;2023-11-19T11:25:06;16.30;53.40
37456;DHT22;23316;50.718;7.328;2023-11-19T11:28:02;16.40;54.20
37456;DHT22;23316;50.718;7.328;2023-11-19T11:30:46;16.40;53.80
37456;DHT22;23316;50.718;7.328;2023-11-19T11:33:37;16.30;53.20
37456;DHT22;23316;50.718;7.328;2023-11-19T11:36:15;16.30;53.40
37456;DHT22;23316;50.718;7.328;2023-11-19T11:38:47;16.30;53.10
37456;DHT22;23316;50.718;7.328;2023-11-19T11:41:16;16.30;53.20
37456;DHT22;23316;50.718;7.328;2023-11-19T11:43:44;16.20;52.70
37456;DHT22;23316;50.718;7.328;2023-11-19T11:49:13;16.10;52.80
37456;DHT22;23316;50.718;7.328;2023-11-19T11:52:01;16.20;53.30
37456;DHT22;23316;50.718;7.328;2023-11-19T11:54:29;16.00;53.60
37456;DHT22;23316;50.718;7.328;2023-11-19T11:57:02;15.80;54.90
37456;DHT22;23316;50.718;7.328;2023-11-19T11:59:37;15.50;55.90
37456;DHT22;23316;50.718;7.328;2023-11-19T12:02:04;15.50;56.40
37456;DHT22;23316;50.718;7.328;2023-11-19T12:04:36;15.70;56.50
37456;DHT22;23316;50.718;7.328;2023-11-19T12:07:04;15.60;56.20
37456;DHT22;23316;50.718;7.328;2023-11-19T12:09:32;15.50;56.60
37456;DHT22;23316;50.718;7.328;2023-11-19T12:12:11;15.20;57.00
37456;DHT22;23316;50.718;7.328;2023-11-19T12:15:03;15.10;58.00
37456;DHT22;23316;50.718;7.328;2023-11-19T12:17:46;15.00;58.60
37456;DHT22;23316;50.718;7.328;2023-11-19T12:20:18;14.90;58.80
37456;DHT22;23316;50.718;7.328;2023-11-19T12:22:46;15.00;59.30
37456;DHT22;23316;50.718;7.328;2023-11-19T12:25:15;14.90;59.40
37456;DHT22;23316;50.718;7.328;2023-11-19T12:27:44;14.90;59.70
37456;DHT22;23316;50.718;7.328;2023-11-19T12:30:12;14.80;59.90
37456;DHT22;23316;50.718;7.328;2023-11-19T12:32:40;14.70;59.90
37456;DHT22;23316;50.718;7.328;2023-11-19T12:35:09;14.70;60.20
37456;DHT22;23316;50.718;7.328;2023-11-19T12:37:41;14.60;60.40
37456;DHT22;23316;50.718;7.328;2023-11-19T12:40:15;14.60;60.70
37456;DHT22;23316;50.718;7.328;2023-11-19T12:42:43;14.60;61.20
37456;DHT22;23316;50.718;7.328;2023-11-19T12:45:11;14.60;61.40
37456;DHT22;23316;50.718;7.328;2023-11-19T12:47:39;14.50;61.20
37456;DHT22;23316;50.718;7.328;2023-11-19T12:50:08;14.60;61.40
37456;DHT22;23316;50.718;7.328;2023-11-19T12:52:35;14.60;61.60
37456;DHT22;23316;50.718;7.328;2023-11-19T12:55:05;14.50;61.90
37456;DHT22;23316;50.718;7.328;2023-11-19T12:57:37;14.40;62.10
37456;DHT22;23316;50.718;7.328;2023-11-19T13:00:06;14.40;61.20
37456;DHT22;23316;50.718;7.328;2023-11-19T13:02:46;14.30;61.90
37456;DHT22;23316;50.718;7.328;2023-11-19T13:05:24;14.30;62.30
37456;DHT22;23316;50.718;7.328;2023-11-19T13:07:58;14.40;62.10
37456;DHT22;23316;50.718;7.328;2023-11-19T13:10:27;14.40;62.40
37456;DHT22;23316;50.718;7.328;2023-11-19T13:13:02;14.40;62.20
37456;DHT22;23316;50.718;7.328;2023-11-19T13:15:32;14.40;62.50
37456;DHT22;23316;50.718;7.328;2023-11-19T13:18:00;14.50;62.70
37456;DHT22;23316;50.718;7.328;2023-11-19T13:20:28;14.50;62.80
37456;DHT22;23316;50.718;7.328;2023-11-19T13:22:56;14.30;62.90
37456;DHT22;23316;50.718;7.328;2023-11-19T13:25:24;14.20;63.40
37456;DHT22;23316;50.718;7.328;2023-11-19T13:27:53;14.30;64.00
37456;DHT22;23316;50.718;7.328;2023-11-19T13:30:20;14.20;64.40
37456;DHT22;23316;50.718;7.328;2023-11-19T13:32:48;14.20;65.20
37456;DHT22;23316;50.718;7.328;2023-11-19T13:35:16;14.20;64.80
37456;DHT22;23316;50.718;7.328;2023-11-19T13:37:44;14.10;65.00
37456;DHT22;23316;50.718;7.328;2023-11-19T13:40:12;14.20;65.40
37456;DHT22;23316;50.718;7.328;2023-11-19T13:42:42;14.10;65.60
37456;DHT22;23316;50.718;7.328;2023-11-19T13:45:11;14.10;65.80
37456;DHT22;23316;50.718;7.328;2023-11-19T13:47:39;14.10;65.80
37456;DHT22;23316;50.718;7.328;2023-11-19T13:50:09;14.10;65.90
37456;DHT22;23316;50.718;7.328;2023-11-19T13:52:37;14.20;65.70
37456;DHT22;23316;50.718;7.328;2023-11-19T13:55:08;14.20;65.60
37456;DHT22;23316;50.718;7.328;2023-11-19T13:57:36;14.20;65.60
37456;DHT22;23316;50.718;7.328;2023-11-19T14:00:05;14.30;65.60
37456;DHT22;23316;50.718;7.328;2023-11-19T14:02:38;14.30;65.70
37456;DHT22;23316;50.718;7.328;2023-11-19T14:05:06;14.40;65.50
37456;DHT22;23316;50.718;7.328;2023-11-19T14:07:34;14.50;65.50
37456;DHT22;23316;50.718;7.328;2023-11-19T14:10:01;14.40;64.80
37456;DHT22;23316;50.718;7.328;2023-11-19T14:12:29;14.50;64.20
37456;DHT22;23316;50.718;7.328;2023-11-19T14:14:56;14.50;63.60
37456;DHT22;23316;50.718;7.328;2023-11-19T14:17:23;14.50;62.80
37456;DHT22;23316;50.718;7.328;2023-11-19T14:19:52;14.60;62.20
37456;DHT22;23316;50.718;7.328;2023-11-19T14:22:20;14.50;60.80
37456;DHT22;23316;50.718;7.328;2023-11-19T14:24:47;14.60;60.90
37456;DHT22;23316;50.718;7.328;2023-11-19T14:27:14;14.50;60.20
37456;DHT22;23316;50.718;7.328;2023-11-19T14:29:43;14.50;59.90
37456;DHT22;23316;50.718;7.328;2023-11-19T14:32:11;14.50;60.40
37456;DHT22;23316;50.718;7.328;2023-11-19T14:34:39;14.60;60.30
37456;DHT22;23316;50.718;7.328;2023-11-19T14:37:07;14.60;60.20
37456;DHT22;23316;50.718;7.328;2023-11-19T14:39:34;14.70;60.10
37456;DHT22;23316;50.718;7.328;2023-11-19T14:42:02;14.60;59.70
37456;DHT22;23316;50.718;7.328;2023-11-19T14:44:31;14.70;59.80
37456;DHT22;23316;50.718;7.328;2023-11-19T14:46:58;14.80;59.60
37456;DHT22;23316;50.718;7.328;2023-11-19T14:49:27;14.90;59.50
37456;DHT22;23316;50.718;7.328;2023-11-19T14:51:55;14.90;58.90
37456;DHT22;23316;50.718;7.328;2023-11-19T14:54:23;15.00;58.90
37456;DHT22;23316;50.718;7.328;2023-11-19T14:56:52;15.00;59.30
37456;DHT22;23316;50.718;7.328;2023-11-19T14:59:19;15.00;58.80
37456;DHT22;23316;50.718;7.328;2023-11-19T15:01:46;14.90;58.60
37456;DHT22;23316;50.718;7.328;2023-11-19T15:04:14;14.90;58.10
37456;DHT22;23316;50.718;7.328;2023-11-19T15:06:41;14.90;58.50
37456;DHT22;23316;50.718;7.328;2023-11-19T15:09:09;14.90;58.40
37456;DHT22;23316;50.718;7.328;2023-11-19T15:11:43;15.00;58.10
37456;DHT22;23316;50.718;7.328;2023-11-19T15:14:12;14.90;57.60
37456;DHT22;23316;50.718;7.328;2023-11-19T15:16:41;15.00;58.30
37456;DHT22;23316;50.718;7.328;2023-11-19T15:19:08;14.90;57.30
37456;DHT22;23316;50.718;7.328;2023-11-19T15:21:35;14.90;57.20
37456;DHT22;23316;50.718;7.328;2023-11-19T15:24:03;14.80;57.30
37456;DHT22;23316;50.718;7.328;2023-11-19T15:26:33;14.80;57.30
37456;DHT22;23316;50.718;7.328;2023-11-19T15:29:02;14.80;57.40
37456;DHT22;23316;50.718;7.328;2023-11-19T15:31:30;14.80;57.50
37456;DHT22;23316;50.718;7.328;2023-11-19T15:33:57;14.80;57.00
37456;DHT22;23316;50.718;7.328;2023-11-19T15:36:24;14.70;57.00
37456;DHT22;23316;50.718;7.328;2023-11-19T15:38:52;14.70;57.30
37456;DHT22;23316;50.718;7.328;2023-11-19T15:41:19;14.70;57.40
37456;DHT22;23316;50.718;7.328;2023-11-19T15:43:46;14.60;57.20